sensor_id;sensor_type;location;lat;lon;timestamp;P1;durP1;ratioP1;P2;durP2;ratioP2
6007;SDS011;3032;49.484;11.112;2022-07-04T00:00:40;2.70;;;2.60;;
6007;SDS011;3032;49.484;11.112;2022-07-04T00:03:05;3.43;;;3.10;;
6007;SDS011;3032;49.484;11.112;2022-07-04T00:05:31;3.23;;;3.03;;
6007;SDS011;3032;49.484;11.112;2022-07-04T00:07:57;2.93;;;2.73;;
6007;SDS011;3032;49.484;11.112;2022-07-04T00:10:23;2.83;;;2.73;;
6007;SDS011;3032;49.484;11.112;2022-07-04T00:12:48;3.07;;;2.80;;
6007;SDS011;3032;49.484;11.112;2022-07-04T00:15:15;3.38;;;3.00;;
6007;SDS011;3032;49.484;11.112;2022-07-04T00:17:41;4.32;;;2.50;;
6007;SDS011;3032;49.484;11.112;2022-07-04T00:20:07;2.70;;;2.60;;
6007;SDS011;3032;49.484;11.112;2022-07-04T00:22:34;2.95;;;2.75;;
6007;SDS011;3032;49.484;11.112;2022-07-04T00:25:00;2.60;;;2.50;;
6007;SDS011;3032;49.484;11.112;2022-07-04T00:27:26;2.70;;;2.50;;
6007;SDS011;3032;49.484;11.112;2022-07-04T00:29:51;3.47;;;2.87;;
6007;SDS011;3032;49.484;11.112;2022-07-04T00:32:17;2.90;;;2.70;;
6007;SDS011;3032;49.484;11.112;2022-07-04T00:34:43;4.10;;;2.70;;
6007;SDS011;3032;49.484;11.112;2022-07-04T00:37:09;3.10;;;2.90;;
6007;SDS011;3032;49.484;11.112;2022-07-04T00:39:34;2.70;;;2.60;;
6007;SDS011;3032;49.484;11.112;2022-07-04T00:42:00;2.40;;;2.30;;
6007;SDS011;3032;49.484;11.112;2022-07-04T00:44:26;2.70;;;2.50;;
6007;SDS011;3032;49.484;11.112;2022-07-04T00:46:51;3.03;;;2.73;;
6007;SDS011;3032;49.484;11.112;2022-07-04T00:49:17;5.63;;;2.73;;
6007;SDS011;3032;49.484;11.112;2022-07-04T00:51:44;3.10;;;2.70;;
6007;SDS011;3032;49.484;11.112;2022-07-04T00:54:11;3.20;;;3.00;;
6007;SDS011;3032;49.484;11.112;2022-07-04T00:56:38;2.50;;;2.33;;
6007;SDS011;3032;49.484;11.112;2022-07-04T00:59:05;4.60;;;2.60;;
6007;SDS011;3032;49.484;11.112;2022-07-04T01:01:32;2.90;;;2.70;;
6007;SDS011;3032;49.484;11.112;2022-07-04T01:03:58;3.15;;;2.95;;
6007;SDS011;3032;49.484;11.112;2022-07-04T01:06:23;2.80;;;2.60;;
6007;SDS011;3032;49.484;11.112;2022-07-04T01:08:49;2.80;;;2.60;;
6007;SDS011;3032;49.484;11.112;2022-07-04T01:11:15;3.40;;;2.90;;
6007;SDS011;3032;49.484;11.112;2022-07-04T01:13:41;4.60;;;3.00;;
6007;SDS011;3032;49.484;11.112;2022-07-04T01:16:08;3.95;;;3.55;;
6007;SDS011;3032;49.484;11.112;2022-07-04T01:18:34;3.53;;;3.30;;
6007;SDS011;3032;49.484;11.112;2022-07-04T01:21:00;4.17;;;3.23;;
6007;SDS011;3032;49.484;11.112;2022-07-04T01:23:26;3.03;;;2.83;;
6007;SDS011;3032;49.484;11.112;2022-07-04T01:25:52;3.57;;;3.30;;
6007;SDS011;3032;49.484;11.112;2022-07-04T01:28:18;3.50;;;3.20;;
6007;SDS011;3032;49.484;11.112;2022-07-04T01:30:44;3.05;;;2.85;;
6007;SDS011;3032;49.484;11.112;2022-07-04T01:33:10;4.37;;;3.40;;
6007;SDS011;3032;49.484;11.112;2022-07-04T01:35:36;2.80;;;2.70;;
6007;SDS011;3032;49.484;11.112;2022-07-04T01:38:01;3.33;;;3.13;;
6007;SDS011;3032;49.484;11.112;2022-07-04T01:40:27;2.77;;;2.57;;
6007;SDS011;3032;49.484;11.112;2022-07-04T01:42:52;3.07;;;2.87;;
6007;SDS011;3032;49.484;11.112;2022-07-04T01:45:18;3.97;;;3.23;;
6007;SDS011;3032;49.484;11.112;2022-07-04T01:47:44;2.70;;;2.50;;
6007;SDS011;3032;49.484;11.112;2022-07-04T01:50:10;3.23;;;3.07;;
6007;SDS011;3032;49.484;11.112;2022-07-04T01:52:39;6.88;;;3.50;;
6007;SDS011;3032;49.484;11.112;2022-07-04T01:55:06;3.05;;;2.85;;
6007;SDS011;3032;49.484;11.112;2022-07-04T01:57:33;3.85;;;3.50;;
6007;SDS011;3032;49.484;11.112;2022-07-04T01:59:58;3.60;;;3.40;;
6007;SDS011;3032;49.484;11.112;2022-07-04T02:03:02;3.88;;;3.67;;
6007;SDS011;3032;49.484;11.112;2022-07-04T02:05:28;3.87;;;3.50;;
6007;SDS011;3032;49.484;11.112;2022-07-04T02:07:54;3.15;;;2.95;;
6007;SDS011;3032;49.484;11.112;2022-07-04T02:10:20;3.70;;;3.40;;
6007;SDS011;3032;49.484;11.112;2022-07-04T02:12:46;3.20;;;3.00;;
6007;SDS011;3032;49.484;11.112;2022-07-04T02:15:30;3.60;;;3.30;;
6007;SDS011;3032;49.484;11.112;2022-07-04T02:18:01;3.20;;;3.00;;
6007;SDS011;3032;49.484;11.112;2022-07-04T02:20:27;3.55;;;3.35;;
6007;SDS011;3032;49.484;11.112;2022-07-04T02:22:53;3.70;;;3.40;;
6007;SDS011;3032;49.484;11.112;2022-07-04T02:25:19;6.27;;;3.83;;
6007;SDS011;3032;49.484;11.112;2022-07-04T02:27:45;3.47;;;3.23;;
6007;SDS011;3032;49.484;11.112;2022-07-04T02:30:11;3.67;;;3.37;;
6007;SDS011;3032;49.484;11.112;2022-07-04T02:32:37;3.30;;;3.00;;
6007;SDS011;3032;49.484;11.112;2022-07-04T02:35:03;3.70;;;3.40;;
6007;SDS011;3032;49.484;11.112;2022-07-04T02:37:30;3.65;;;3.45;;
6007;SDS011;3032;49.484;11.112;2022-07-04T02:39:55;3.80;;;3.50;;
6007;SDS011;3032;49.484;11.112;2022-07-04T02:42:21;3.33;;;3.13;;
6007;SDS011;3032;49.484;11.112;2022-07-04T02:44:47;3.80;;;3.43;;
6007;SDS011;3032;49.484;11.112;2022-07-04T02:47:13;3.10;;;3.00;;
6007;SDS011;3032;49.484;11.112;2022-07-04T02:49:38;3.20;;;3.00;;
6007;SDS011;3032;49.484;11.112;2022-07-04T02:52:04;3.83;;;3.50;;
6007;SDS011;3032;49.484;11.112;2022-07-04T02:54:30;4.20;;;3.30;;
6007;SDS011;3032;49.484;11.112;2022-07-04T02:56:56;5.43;;;3.40;;
6007;SDS011;3032;49.484;11.112;2022-07-04T02:59:21;3.27;;;3.07;;
6007;SDS011;3032;49.484;11.112;2022-07-04T03:01:47;3.57;;;3.23;;
6007;SDS011;3032;49.484;11.112;2022-07-04T03:04:12;3.40;;;3.20;;
6007;SDS011;3032;49.484;11.112;2022-07-04T03:06:38;3.50;;;3.20;;
6007;SDS011;3032;49.484;11.112;2022-07-04T03:09:05;3.38;;;3.28;;
6007;SDS011;3032;49.484;11.112;2022-07-04T03:11:30;3.30;;;3.20;;
6007;SDS011;3032;49.484;11.112;2022-07-04T03:13:56;3.80;;;3.60;;
6007;SDS011;3032;49.484;11.112;2022-07-04T03:16:22;3.87;;;3.57;;
6007;SDS011;3032;49.484;11.112;2022-07-04T03:18:48;6.03;;;2.77;;
6007;SDS011;3032;49.484;11.112;2022-07-04T03:21:13;3.20;;;3.10;;
6007;SDS011;3032;49.484;11.112;2022-07-04T03:23:39;3.67;;;3.47;;
6007;SDS011;3032;49.484;11.112;2022-07-04T03:26:04;3.50;;;3.20;;
6007;SDS011;3032;49.484;11.112;2022-07-04T03:28:30;3.80;;;3.60;;
6007;SDS011;3032;49.484;11.112;2022-07-04T03:30:56;3.57;;;3.23;;
6007;SDS011;3032;49.484;11.112;2022-07-04T03:33:21;3.13;;;2.93;;
6007;SDS011;3032;49.484;11.112;2022-07-04T03:35:47;3.10;;;2.93;;
6007;SDS011;3032;49.484;11.112;2022-07-04T03:38:13;3.10;;;2.93;;
6007;SDS011;3032;49.484;11.112;2022-07-04T03:40:38;3.73;;;3.43;;
6007;SDS011;3032;49.484;11.112;2022-07-04T03:43:04;3.30;;;3.10;;
6007;SDS011;3032;49.484;11.112;2022-07-04T03:45:33;4.82;;;3.03;;
6007;SDS011;3032;49.484;11.112;2022-07-04T03:47:59;4.23;;;3.27;;
6007;SDS011;3032;49.484;11.112;2022-07-04T03:50:27;3.90;;;3.10;;
6007;SDS011;3032;49.484;11.112;2022-07-04T03:52:53;4.00;;;3.60;;
6007;SDS011;3032;49.484;11.112;2022-07-04T03:55:18;3.40;;;3.20;;
6007;SDS011;3032;49.484;11.112;2022-07-04T03:57:44;3.20;;;3.03;;
6007;SDS011;3032;49.484;11.112;2022-07-04T04:00:10;4.20;;;3.20;;
6007;SDS011;3032;49.484;11.112;2022-07-04T04:02:36;8.38;;;4.20;;
6007;SDS011;3032;49.484;11.112;2022-07-04T04:05:02;3.40;;;3.20;;
6007;SDS011;3032;49.484;11.112;2022-07-04T04:07:48;3.53;;;3.28;;
6007;SDS011;3032;49.484;11.112;2022-07-04T04:10:13;5.23;;;3.57;;
6007;SDS011;3032;49.484;11.112;2022-07-04T04:12:39;3.60;;;3.40;;
6007;SDS011;3032;49.484;11.112;2022-07-04T04:15:05;3.20;;;2.90;;
6007;SDS011;3032;49.484;11.112;2022-07-04T04:17:30;3.08;;;2.85;;
6007;SDS011;3032;49.484;11.112;2022-07-04T04:19:56;4.00;;;2.70;;
6007;SDS011;3032;49.484;11.112;2022-07-04T04:22:22;4.27;;;3.97;;
6007;SDS011;3032;49.484;11.112;2022-07-04T04:24:47;2.80;;;2.60;;
6007;SDS011;3032;49.484;11.112;2022-07-04T04:27:13;3.80;;;3.23;;
6007;SDS011;3032;49.484;11.112;2022-07-04T04:29:38;5.60;;;3.27;;
6007;SDS011;3032;49.484;11.112;2022-07-04T04:32:04;3.90;;;3.37;;
6007;SDS011;3032;49.484;11.112;2022-07-04T04:34:30;5.53;;;3.27;;
6007;SDS011;3032;49.484;11.112;2022-07-04T04:36:55;3.33;;;3.10;;
6007;SDS011;3032;49.484;11.112;2022-07-04T04:39:21;4.07;;;3.00;;
6007;SDS011;3032;49.484;11.112;2022-07-04T04:41:46;3.33;;;2.63;;
6007;SDS011;3032;49.484;11.112;2022-07-04T04:44:12;2.53;;;2.30;;
6007;SDS011;3032;49.484;11.112;2022-07-04T04:46:37;2.90;;;2.60;;
6007;SDS011;3032;49.484;11.112;2022-07-04T04:49:03;3.30;;;2.97;;
6007;SDS011;3032;49.484;11.112;2022-07-04T04:51:29;3.30;;;3.10;;
6007;SDS011;3032;49.484;11.112;2022-07-04T04:53:54;2.87;;;2.77;;
6007;SDS011;3032;49.484;11.112;2022-07-04T04:56:20;3.37;;;3.07;;
6007;SDS011;3032;49.484;11.112;2022-07-04T04:58:46;2.90;;;2.60;;
6007;SDS011;3032;49.484;11.112;2022-07-04T05:01:12;3.50;;;2.57;;
6007;SDS011;3032;49.484;11.112;2022-07-04T05:03:37;5.07;;;2.60;;
6007;SDS011;3032;49.484;11.112;2022-07-04T05:06:03;3.90;;;2.50;;
6007;SDS011;3032;49.484;11.112;2022-07-04T05:08:28;2.53;;;2.43;;
6007;SDS011;3032;49.484;11.112;2022-07-04T05:10:54;3.20;;;2.60;;
6007;SDS011;3032;49.484;11.112;2022-07-04T05:13:20;3.23;;;2.27;;
6007;SDS011;3032;49.484;11.112;2022-07-04T05:15:45;3.80;;;2.70;;
6007;SDS011;3032;49.484;11.112;2022-07-04T05:18:11;2.83;;;2.55;;
6007;SDS011;3032;49.484;11.112;2022-07-04T05:20:37;5.22;;;2.58;;
6007;SDS011;3032;49.484;11.112;2022-07-04T05:23:04;2.10;;;2.00;;
6007;SDS011;3032;49.484;11.112;2022-07-04T05:25:30;3.03;;;2.83;;
6007;SDS011;3032;49.484;11.112;2022-07-04T05:27:56;2.37;;;2.13;;
6007;SDS011;3032;49.484;11.112;2022-07-04T05:30:21;4.60;;;2.27;;
6007;SDS011;3032;49.484;11.112;2022-07-04T05:32:47;5.43;;;2.43;;
6007;SDS011;3032;49.484;11.112;2022-07-04T05:35:12;2.53;;;2.13;;
6007;SDS011;3032;49.484;11.112;2022-07-04T05:37:38;4.33;;;2.30;;
6007;SDS011;3032;49.484;11.112;2022-07-04T05:40:04;4.03;;;2.20;;
6007;SDS011;3032;49.484;11.112;2022-07-04T05:42:30;5.65;;;2.10;;
6007;SDS011;3032;49.484;11.112;2022-07-04T05:44:55;2.30;;;2.20;;
6007;SDS011;3032;49.484;11.112;2022-07-04T05:47:21;2.27;;;2.17;;
6007;SDS011;3032;49.484;11.112;2022-07-04T05:49:50;6.13;;;2.50;;
6007;SDS011;3032;49.484;11.112;2022-07-04T05:52:16;5.97;;;2.10;;
6007;SDS011;3032;49.484;11.112;2022-07-04T05:54:42;2.67;;;2.50;;
6007;SDS011;3032;49.484;11.112;2022-07-04T05:57:07;9.73;;;2.70;;
6007;SDS011;3032;49.484;11.112;2022-07-04T05:59:33;2.53;;;1.80;;
6007;SDS011;3032;49.484;11.112;2022-07-04T06:01:59;2.10;;;2.00;;
6007;SDS011;3032;49.484;11.112;2022-07-04T06:04:25;3.10;;;2.03;;
6007;SDS011;3032;49.484;11.112;2022-07-04T06:06:51;2.43;;;2.23;;
6007;SDS011;3032;49.484;11.112;2022-07-04T06:09:16;3.20;;;2.30;;
6007;SDS011;3032;49.484;11.112;2022-07-04T06:11:42;2.70;;;2.10;;
6007;SDS011;3032;49.484;11.112;2022-07-04T06:14:08;2.10;;;2.00;;
6007;SDS011;3032;49.484;11.112;2022-07-04T06:16:33;2.27;;;2.10;;
6007;SDS011;3032;49.484;11.112;2022-07-04T06:18:59;2.83;;;2.10;;
6007;SDS011;3032;49.484;11.112;2022-07-04T06:21:24;2.23;;;1.70;;
6007;SDS011;3032;49.484;11.112;2022-07-04T06:23:50;2.03;;;1.90;;
6007;SDS011;3032;49.484;11.112;2022-07-04T06:26:16;4.87;;;2.07;;
6007;SDS011;3032;49.484;11.112;2022-07-04T06:28:41;1.97;;;1.87;;
6007;SDS011;3032;49.484;11.112;2022-07-04T06:31:07;1.83;;;1.73;;
6007;SDS011;3032;49.484;11.112;2022-07-04T06:33:33;2.13;;;2.03;;
6007;SDS011;3032;49.484;11.112;2022-07-04T06:36:18;3.30;;;2.13;;
6007;SDS011;3032;49.484;11.112;2022-07-04T06:38:44;2.30;;;2.10;;
6007;SDS011;3032;49.484;11.112;2022-07-04T06:41:09;1.87;;;1.77;;
6007;SDS011;3032;49.484;11.112;2022-07-04T06:43:36;1.77;;;1.60;;
6007;SDS011;3032;49.484;11.112;2022-07-04T06:46:01;5.50;;;2.00;;
6007;SDS011;3032;49.484;11.112;2022-07-04T06:48:27;2.00;;;1.90;;
6007;SDS011;3032;49.484;11.112;2022-07-04T06:50:52;5.83;;;1.87;;
6007;SDS011;3032;49.484;11.112;2022-07-04T06:53:18;2.53;;;1.50;;
6007;SDS011;3032;49.484;11.112;2022-07-04T06:55:43;2.20;;;1.40;;
6007;SDS011;3032;49.484;11.112;2022-07-04T06:58:09;1.73;;;1.63;;
6007;SDS011;3032;49.484;11.112;2022-07-04T07:00:35;1.60;;;1.50;;
6007;SDS011;3032;49.484;11.112;2022-07-04T07:03:01;1.80;;;1.70;;
6007;SDS011;3032;49.484;11.112;2022-07-04T07:05:27;1.80;;;1.70;;
6007;SDS011;3032;49.484;11.112;2022-07-04T07:07:53;2.50;;;1.50;;
6007;SDS011;3032;49.484;11.112;2022-07-04T07:10:20;2.50;;;1.80;;
6007;SDS011;3032;49.484;11.112;2022-07-04T07:12:46;1.48;;;1.42;;
6007;SDS011;3032;49.484;11.112;2022-07-04T07:15:12;1.87;;;1.77;;
6007;SDS011;3032;49.484;11.112;2022-07-04T07:17:38;3.03;;;1.70;;
6007;SDS011;3032;49.484;11.112;2022-07-04T07:20:04;3.08;;;2.00;;
6007;SDS011;3032;49.484;11.112;2022-07-04T07:22:30;3.88;;;2.20;;
6007;SDS011;3032;49.484;11.112;2022-07-04T07:24:56;2.00;;;1.90;;
6007;SDS011;3032;49.484;11.112;2022-07-04T07:27:21;6.90;;;1.93;;
6007;SDS011;3032;49.484;11.112;2022-07-04T07:29:47;1.90;;;1.80;;
6007;SDS011;3032;49.484;11.112;2022-07-04T07:32:13;2.43;;;2.30;;
6007;SDS011;3032;49.484;11.112;2022-07-04T07:34:39;2.17;;;1.98;;
6007;SDS011;3032;49.484;11.112;2022-07-04T07:37:05;2.00;;;1.90;;
6007;SDS011;3032;49.484;11.112;2022-07-04T07:39:32;5.32;;;2.40;;
6007;SDS011;3032;49.484;11.112;2022-07-04T07:41:57;2.30;;;2.10;;
6007;SDS011;3032;49.484;11.112;2022-07-04T07:44:23;3.77;;;2.40;;
6007;SDS011;3032;49.484;11.112;2022-07-04T07:46:48;2.60;;;2.23;;
6007;SDS011;3032;49.484;11.112;2022-07-04T07:49:14;3.80;;;2.53;;
6007;SDS011;3032;49.484;11.112;2022-07-04T07:51:40;2.33;;;2.10;;
6007;SDS011;3032;49.484;11.112;2022-07-04T07:54:06;3.07;;;2.30;;
6007;SDS011;3032;49.484;11.112;2022-07-04T07:56:31;6.97;;;2.70;;
6007;SDS011;3032;49.484;11.112;2022-07-04T07:58:57;2.70;;;2.43;;
6007;SDS011;3032;49.484;11.112;2022-07-04T08:01:23;2.60;;;2.50;;
6007;SDS011;3032;49.484;11.112;2022-07-04T08:03:48;3.70;;;2.40;;
6007;SDS011;3032;49.484;11.112;2022-07-04T08:06:33;3.15;;;2.78;;
6007;SDS011;3032;49.484;11.112;2022-07-04T08:08:59;4.23;;;1.90;;
6007;SDS011;3032;49.484;11.112;2022-07-04T08:11:24;3.77;;;2.23;;
6007;SDS011;3032;49.484;11.112;2022-07-04T08:13:51;2.00;;;1.90;;
6007;SDS011;3032;49.484;11.112;2022-07-04T08:16:17;2.55;;;2.20;;
6007;SDS011;3032;49.484;11.112;2022-07-04T08:18:43;2.38;;;2.13;;
6007;SDS011;3032;49.484;11.112;2022-07-04T08:21:08;3.63;;;2.40;;
6007;SDS011;3032;49.484;11.112;2022-07-04T08:23:34;3.22;;;2.10;;
6007;SDS011;3032;49.484;11.112;2022-07-04T08:26:01;5.50;;;2.58;;
6007;SDS011;3032;49.484;11.112;2022-07-04T08:28:27;2.60;;;2.50;;
6007;SDS011;3032;49.484;11.112;2022-07-04T08:30:53;3.27;;;2.67;;
6007;SDS011;3032;49.484;11.112;2022-07-04T08:33:19;4.75;;;2.63;;
6007;SDS011;3032;49.484;11.112;2022-07-04T08:35:45;12.23;;;2.37;;
6007;SDS011;3032;49.484;11.112;2022-07-04T08:38:11;2.33;;;2.10;;
6007;SDS011;3032;49.484;11.112;2022-07-04T08:40:36;2.43;;;1.97;;
6007;SDS011;3032;49.484;11.112;2022-07-04T08:43:02;3.50;;;2.20;;
6007;SDS011;3032;49.484;11.112;2022-07-04T08:45:29;2.43;;;2.33;;
6007;SDS011;3032;49.484;11.112;2022-07-04T08:48:04;2.25;;;2.13;;
6007;SDS011;3032;49.484;11.112;2022-07-04T08:50:32;3.38;;;2.22;;
6007;SDS011;3032;49.484;11.112;2022-07-04T08:52:59;4.13;;;2.47;;
6007;SDS011;3032;49.484;11.112;2022-07-04T08:55:32;4.28;;;2.63;;
6007;SDS011;3032;49.484;11.112;2022-07-04T08:58:16;2.63;;;2.10;;
6007;SDS011;3032;49.484;11.112;2022-07-04T09:00:52;2.13;;;1.92;;
6007;SDS011;3032;49.484;11.112;2022-07-04T09:03:18;2.78;;;2.58;;
6007;SDS011;3032;49.484;11.112;2022-07-04T09:05:44;3.15;;;2.35;;
6007;SDS011;3032;49.484;11.112;2022-07-04T09:08:11;5.35;;;2.53;;
6007;SDS011;3032;49.484;11.112;2022-07-04T09:10:37;2.63;;;2.43;;
6007;SDS011;3032;49.484;11.112;2022-07-04T09:13:03;2.50;;;2.40;;
6007;SDS011;3032;49.484;11.112;2022-07-04T09:15:30;2.45;;;2.22;;
6007;SDS011;3032;49.484;11.112;2022-07-04T09:17:56;2.80;;;2.40;;
6007;SDS011;3032;49.484;11.112;2022-07-04T09:20:23;2.80;;;2.55;;
6007;SDS011;3032;49.484;11.112;2022-07-04T09:22:50;3.03;;;2.08;;
6007;SDS011;3032;49.484;11.112;2022-07-04T09:25:17;3.88;;;2.30;;
6007;SDS011;3032;49.484;11.112;2022-07-04T09:27:50;5.18;;;2.28;;
6007;SDS011;3032;49.484;11.112;2022-07-04T09:30:17;4.10;;;2.35;;
6007;SDS011;3032;49.484;11.112;2022-07-04T09:32:48;5.13;;;2.40;;
6007;SDS011;3032;49.484;11.112;2022-07-04T09:35:18;4.20;;;2.20;;
6007;SDS011;3032;49.484;11.112;2022-07-04T09:37:49;2.60;;;2.40;;
6007;SDS011;3032;49.484;11.112;2022-07-04T09:40:25;2.75;;;2.35;;
6007;SDS011;3032;49.484;11.112;2022-07-04T09:42:56;2.00;;;2.00;;
6007;SDS011;3032;49.484;11.112;2022-07-04T09:45:23;5.75;;;2.40;;
6007;SDS011;3032;49.484;11.112;2022-07-04T09:47:49;2.65;;;2.30;;
6007;SDS011;3032;49.484;11.112;2022-07-04T09:50:19;2.50;;;2.40;;
6007;SDS011;3032;49.484;11.112;2022-07-04T09:52:46;2.10;;;2.00;;
6007;SDS011;3032;49.484;11.112;2022-07-04T09:58:00;2.33;;;1.75;;
6007;SDS011;3032;49.484;11.112;2022-07-04T10:00:30;2.00;;;1.90;;
6007;SDS011;3032;49.484;11.112;2022-07-04T10:03:20;1.98;;;1.88;;
6007;SDS011;3032;49.484;11.112;2022-07-04T10:08:36;2.70;;;1.83;;
6007;SDS011;3032;49.484;11.112;2022-07-04T10:11:03;2.30;;;1.98;;
6007;SDS011;3032;49.484;11.112;2022-07-04T10:13:29;2.10;;;2.00;;
6007;SDS011;3032;49.484;11.112;2022-07-04T10:15:55;2.75;;;2.03;;
6007;SDS011;3032;49.484;11.112;2022-07-04T10:18:22;4.07;;;1.80;;
6007;SDS011;3032;49.484;11.112;2022-07-04T10:20:48;2.05;;;1.58;;
6007;SDS011;3032;49.484;11.112;2022-07-04T10:23:15;2.00;;;2.00;;
6007;SDS011;3032;49.484;11.112;2022-07-04T10:25:41;2.65;;;2.45;;
6007;SDS011;3032;49.484;11.112;2022-07-04T10:28:08;2.00;;;1.90;;
6007;SDS011;3032;49.484;11.112;2022-07-04T10:30:34;1.77;;;1.67;;
6007;SDS011;3032;49.484;11.112;2022-07-04T10:33:03;2.47;;;1.75;;
6007;SDS011;3032;49.484;11.112;2022-07-04T10:35:53;2.53;;;2.00;;
6007;SDS011;3032;49.484;11.112;2022-07-04T10:38:21;2.88;;;1.80;;
6007;SDS011;3032;49.484;11.112;2022-07-04T10:41:02;2.15;;;1.80;;
6007;SDS011;3032;49.484;11.112;2022-07-04T10:51:41;1.90;;;1.80;;
6007;SDS011;3032;49.484;11.112;2022-07-04T10:54:09;1.42;;;1.33;;
6007;SDS011;3032;49.484;11.112;2022-07-04T10:56:41;3.50;;;2.00;;
6007;SDS011;3032;49.484;11.112;2022-07-04T10:59:13;1.48;;;1.38;;
6007;SDS011;3032;49.484;11.112;2022-07-04T11:01:47;1.70;;;1.55;;
6007;SDS011;3032;49.484;11.112;2022-07-04T11:04:44;6.60;;;1.77;;
6007;SDS011;3032;49.484;11.112;2022-07-04T11:17:57;3.53;;;1.55;;
6007;SDS011;3032;49.484;11.112;2022-07-04T11:20:26;4.20;;;1.50;;
6007;SDS011;3032;49.484;11.112;2022-07-04T11:23:07;2.83;;;1.52;;
6007;SDS011;3032;49.484;11.112;2022-07-04T11:25:33;1.80;;;1.70;;
6007;SDS011;3032;49.484;11.112;2022-07-04T11:30:54;3.63;;;1.40;;
6007;SDS011;3032;49.484;11.112;2022-07-04T11:33:22;2.65;;;1.70;;
6007;SDS011;3032;49.484;11.112;2022-07-04T11:41:18;2.20;;;1.10;;
6007;SDS011;3032;49.484;11.112;2022-07-04T11:44:04;2.73;;;1.30;;
6007;SDS011;3032;49.484;11.112;2022-07-04T11:47:01;3.60;;;1.58;;
6007;SDS011;3032;49.484;11.112;2022-07-04T11:49:32;2.63;;;1.20;;
6007;SDS011;3032;49.484;11.112;2022-07-04T11:51:58;2.97;;;1.33;;
6007;SDS011;3032;49.484;11.112;2022-07-04T11:54:23;1.53;;;1.40;;
6007;SDS011;3032;49.484;11.112;2022-07-04T11:56:49;1.13;;;1.00;;
6007;SDS011;3032;49.484;11.112;2022-07-04T11:59:15;1.50;;;1.40;;
6007;SDS011;3032;49.484;11.112;2022-07-04T12:01:42;1.30;;;1.20;;
6007;SDS011;3032;49.484;11.112;2022-07-04T12:04:16;2.40;;;1.40;;
6007;SDS011;3032;49.484;11.112;2022-07-04T12:06:47;3.50;;;1.13;;
6007;SDS011;3032;49.484;11.112;2022-07-04T12:09:14;1.80;;;1.20;;
6007;SDS011;3032;49.484;11.112;2022-07-04T12:11:49;1.47;;;1.17;;
6007;SDS011;3032;49.484;11.112;2022-07-04T12:14:25;3.53;;;1.57;;
6007;SDS011;3032;49.484;11.112;2022-07-04T12:19:53;1.40;;;1.20;;
6007;SDS011;3032;49.484;11.112;2022-07-04T12:24:58;4.50;;;1.43;;
6007;SDS011;3032;49.484;11.112;2022-07-04T12:27:24;2.30;;;1.10;;
6007;SDS011;3032;49.484;11.112;2022-07-04T12:29:51;3.37;;;1.60;;
6007;SDS011;3032;49.484;11.112;2022-07-04T12:32:18;1.33;;;1.23;;
6007;SDS011;3032;49.484;11.112;2022-07-04T12:34:44;1.73;;;1.20;;
6007;SDS011;3032;49.484;11.112;2022-07-04T12:37:11;1.30;;;1.20;;
6007;SDS011;3032;49.484;11.112;2022-07-04T12:39:38;1.27;;;1.20;;
6007;SDS011;3032;49.484;11.112;2022-07-04T12:42:18;2.70;;;1.20;;
6007;SDS011;3032;49.484;11.112;2022-07-04T12:44:45;8.50;;;1.10;;
6007;SDS011;3032;49.484;11.112;2022-07-04T12:47:14;2.77;;;1.30;;
6007;SDS011;3032;49.484;11.112;2022-07-04T12:49:44;3.17;;;0.87;;
6007;SDS011;3032;49.484;11.112;2022-07-04T12:52:12;2.78;;;1.20;;
6007;SDS011;3032;49.484;11.112;2022-07-04T12:54:40;3.92;;;1.42;;
6007;SDS011;3032;49.484;11.112;2022-07-04T12:57:12;1.90;;;1.00;;
6007;SDS011;3032;49.484;11.112;2022-07-04T12:59:40;1.77;;;1.52;;
6007;SDS011;3032;49.484;11.112;2022-07-04T13:02:08;3.00;;;1.30;;
6007;SDS011;3032;49.484;11.112;2022-07-04T13:04:34;5.07;;;1.30;;
6007;SDS011;3032;49.484;11.112;2022-07-04T13:07:22;1.60;;;1.38;;
6007;SDS011;3032;49.484;11.112;2022-07-04T13:09:46;1.92;;;1.40;;
6007;SDS011;3032;49.484;11.112;2022-07-04T13:12:12;1.50;;;1.30;;
6007;SDS011;3032;49.484;11.112;2022-07-04T13:14:51;1.55;;;1.20;;
6007;SDS011;3032;49.484;11.112;2022-07-04T13:17:18;4.10;;;1.10;;
6007;SDS011;3032;49.484;11.112;2022-07-04T13:19:44;3.53;;;1.17;;
6007;SDS011;3032;49.484;11.112;2022-07-04T13:22:10;2.63;;;1.37;;
6007;SDS011;3032;49.484;11.112;2022-07-04T13:24:35;1.10;;;1.10;;
6007;SDS011;3032;49.484;11.112;2022-07-04T13:27:01;1.00;;;1.00;;
6007;SDS011;3032;49.484;11.112;2022-07-04T13:29:27;1.40;;;0.97;;
6007;SDS011;3032;49.484;11.112;2022-07-04T13:31:52;1.67;;;1.33;;
6007;SDS011;3032;49.484;11.112;2022-07-04T13:34:18;3.43;;;1.10;;
6007;SDS011;3032;49.484;11.112;2022-07-04T13:36:44;4.47;;;1.20;;
6007;SDS011;3032;49.484;11.112;2022-07-04T13:39:10;2.30;;;1.10;;
6007;SDS011;3032;49.484;11.112;2022-07-04T13:41:36;1.48;;;1.10;;
6007;SDS011;3032;49.484;11.112;2022-07-04T13:44:02;1.50;;;1.20;;
6007;SDS011;3032;49.484;11.112;2022-07-04T13:46:29;1.70;;;1.10;;
6007;SDS011;3032;49.484;11.112;2022-07-04T13:48:59;1.38;;;1.27;;
6007;SDS011;3032;49.484;11.112;2022-07-04T13:51:26;1.45;;;1.00;;
6007;SDS011;3032;49.484;11.112;2022-07-04T13:53:51;1.50;;;0.80;;
6007;SDS011;3032;49.484;11.112;2022-07-04T13:56:17;4.40;;;1.30;;
6007;SDS011;3032;49.484;11.112;2022-07-04T13:58:46;1.23;;;1.00;;
6007;SDS011;3032;49.484;11.112;2022-07-04T14:01:12;1.60;;;1.05;;
6007;SDS011;3032;49.484;11.112;2022-07-04T14:03:40;2.08;;;0.90;;
6007;SDS011;3032;49.484;11.112;2022-07-04T14:06:07;2.95;;;0.90;;
6007;SDS011;3032;49.484;11.112;2022-07-04T14:08:33;1.20;;;1.10;;
6007;SDS011;3032;49.484;11.112;2022-07-04T14:10:58;1.53;;;0.90;;
6007;SDS011;3032;49.484;11.112;2022-07-04T14:13:24;1.80;;;0.80;;
6007;SDS011;3032;49.484;11.112;2022-07-04T14:15:51;1.52;;;1.42;;
6007;SDS011;3032;49.484;11.112;2022-07-04T14:18:16;3.20;;;1.20;;
6007;SDS011;3032;49.484;11.112;2022-07-04T14:20:42;2.10;;;1.00;;
6007;SDS011;3032;49.484;11.112;2022-07-04T14:23:08;2.33;;;1.00;;
6007;SDS011;3032;49.484;11.112;2022-07-04T14:25:34;1.30;;;1.20;;
6007;SDS011;3032;49.484;11.112;2022-07-04T14:28:00;1.40;;;1.30;;
6007;SDS011;3032;49.484;11.112;2022-07-04T14:30:25;1.70;;;1.20;;
6007;SDS011;3032;49.484;11.112;2022-07-04T14:32:51;2.10;;;0.90;;
6007;SDS011;3032;49.484;11.112;2022-07-04T14:35:17;1.13;;;0.87;;
6007;SDS011;3032;49.484;11.112;2022-07-04T14:37:43;0.80;;;0.80;;
6007;SDS011;3032;49.484;11.112;2022-07-04T14:40:09;2.93;;;1.20;;
6007;SDS011;3032;49.484;11.112;2022-07-04T14:42:35;1.42;;;0.95;;
6007;SDS011;3032;49.484;11.112;2022-07-04T14:45:00;3.40;;;1.17;;
6007;SDS011;3032;49.484;11.112;2022-07-04T14:47:26;1.50;;;1.07;;
6007;SDS011;3032;49.484;11.112;2022-07-04T14:49:52;2.50;;;0.90;;
6007;SDS011;3032;49.484;11.112;2022-07-04T14:52:17;1.70;;;0.87;;
6007;SDS011;3032;49.484;11.112;2022-07-04T14:54:43;1.10;;;0.90;;
6007;SDS011;3032;49.484;11.112;2022-07-04T14:57:09;2.53;;;1.10;;
6007;SDS011;3032;49.484;11.112;2022-07-04T14:59:35;1.80;;;1.20;;
6007;SDS011;3032;49.484;11.112;2022-07-04T15:02:03;1.10;;;0.98;;
6007;SDS011;3032;49.484;11.112;2022-07-04T15:04:29;1.30;;;1.20;;
6007;SDS011;3032;49.484;11.112;2022-07-04T15:06:55;1.83;;;1.10;;
6007;SDS011;3032;49.484;11.112;2022-07-04T15:09:21;1.00;;;1.00;;
6007;SDS011;3032;49.484;11.112;2022-07-04T15:11:47;2.30;;;0.90;;
6007;SDS011;3032;49.484;11.112;2022-07-04T15:14:15;3.53;;;1.13;;
6007;SDS011;3032;49.484;11.112;2022-07-04T15:16:41;1.10;;;1.07;;
6007;SDS011;3032;49.484;11.112;2022-07-04T15:19:06;0.93;;;0.93;;
6007;SDS011;3032;49.484;11.112;2022-07-04T15:21:32;2.63;;;1.10;;
6007;SDS011;3032;49.484;11.112;2022-07-04T15:24:16;0.93;;;0.93;;
6007;SDS011;3032;49.484;11.112;2022-07-04T15:29:09;5.32;;;1.10;;
6007;SDS011;3032;49.484;11.112;2022-07-04T15:31:35;2.93;;;1.10;;
6007;SDS011;3032;49.484;11.112;2022-07-04T15:34:00;1.10;;;1.10;;
6007;SDS011;3032;49.484;11.112;2022-07-04T15:36:26;1.00;;;1.00;;
6007;SDS011;3032;49.484;11.112;2022-07-04T15:38:52;1.23;;;1.00;;
6007;SDS011;3032;49.484;11.112;2022-07-04T15:41:17;4.10;;;1.10;;